createdAt,value
2023-11-01T00:02:17.637Z,100361.66
2023-11-01T00:04:47.314Z,100365.06
2023-11-01T00:07:18.757Z,100361.81
2023-11-01T00:09:47.034Z,100362.13
2023-11-01T00:12:15.323Z,100366.44
2023-11-01T00:14:46.465Z,100359.31
2023-11-01T00:17:25.160Z,100368.13
2023-11-01T00:20:03.303Z,100361.50
2023-11-01T00:22:34.373Z,100361.22
2023-11-01T00:25:17.823Z,100350.69
2023-11-01T00:27:46.097Z,100349.47
2023-11-01T00:30:14.908Z,100340.25
2023-11-01T00:32:43.403Z,100343.94
2023-11-01T00:35:13.283Z,100341.78
2023-11-01T00:37:44.737Z,100341.47
2023-11-01T00:40:13.950Z,100352.41
2023-11-01T00:42:45.347Z,100341.16
2023-11-01T00:45:13.800Z,100344.09
2023-11-01T00:47:42.240Z,100344.09
2023-11-01T00:50:12.385Z,100337.78
2023-11-01T00:52:43.812Z,100332.41
2023-11-01T00:55:20.686Z,100333.13
2023-11-01T00:57:49.597Z,100334.22
2023-11-01T01:00:23.801Z,100323.88
2023-11-01T01:02:52.540Z,100325.28
2023-11-01T01:05:23.706Z,100313.53
2023-11-01T01:07:52.082Z,100309.53
2023-11-01T01:10:20.357Z,100302.63
2023-11-01T01:12:48.642Z,100299.88
2023-11-01T01:15:16.986Z,100305.41
2023-11-01T01:17:47.626Z,100306.31
2023-11-01T01:20:16.336Z,100294.47
2023-11-01T01:22:48.706Z,100292.13
2023-11-01T01:25:17.218Z,100291.09
2023-11-01T01:27:48.776Z,100287.75
2023-11-01T01:30:20.379Z,100285.69
2023-11-01T01:32:48.786Z,100281.28
2023-11-01T01:35:17.691Z,100288.59
2023-11-01T01:37:47.379Z,100287.53
2023-11-01T01:40:21.827Z,100275.53
2023-11-01T01:42:50.148Z,100269.53
2023-11-01T01:45:21.386Z,100269.88
2023-11-01T01:47:50.066Z,100272.44
2023-11-01T01:50:21.654Z,100262.41
2023-11-01T01:52:51.353Z,100258.09
2023-11-01T01:55:22.707Z,100253.00
2023-11-01T01:57:54.505Z,100246.59
2023-11-01T02:00:29.335Z,100247.09
2023-11-01T02:03:01.756Z,100235.91
2023-11-01T02:05:31.572Z,100238.28
2023-11-01T02:08:04.064Z,100243.75
2023-11-01T02:10:32.390Z,100246.44
2023-11-01T02:13:15.577Z,100234.16
2023-11-01T02:15:45.852Z,100229.44
2023-11-01T02:18:14.893Z,100228.63
2023-11-01T02:20:48.844Z,100229.53
2023-11-01T02:23:18.675Z,100228.31
2023-11-01T02:25:51.977Z,100227.97
2023-11-01T02:28:27.942Z,100223.88
2023-11-01T02:30:56.298Z,100218.75
2023-11-01T02:33:27.924Z,100216.50
2023-11-01T02:35:56.866Z,100211.34
2023-11-01T02:38:25.465Z,100205.25
2023-11-01T02:40:57.928Z,100195.38
2023-11-01T02:43:32.543Z,100195.06
2023-11-01T02:46:04.299Z,100197.88
2023-11-01T02:48:35.992Z,100190.59
2023-11-01T02:51:07.442Z,100185.41
2023-11-01T02:53:38.889Z,100183.38
2023-11-01T02:56:22.206Z,100170.88
2023-11-01T02:58:50.489Z,100177.44
2023-11-01T03:01:22.611Z,100178.78
2023-11-01T03:03:53.877Z,100172.16
2023-11-01T03:06:22.495Z,100164.53
2023-11-01T03:09:05.321Z,100157.34
2023-11-01T03:11:35.005Z,100144.56
2023-11-01T03:14:03.333Z,100158.34
2023-11-01T03:16:31.998Z,100156.47
2023-11-01T03:19:12.368Z,100158.50
2023-11-01T03:21:43.757Z,100152.44
2023-11-01T03:24:17.332Z,100143.13
2023-11-01T03:26:50.075Z,100139.09
2023-11-01T03:29:18.952Z,100131.75
2023-11-01T03:31:47.279Z,100124.41
2023-11-01T03:34:15.976Z,100131.06
2023-11-01T03:36:44.711Z,100122.25
2023-11-01T03:39:18.079Z,100133.19
2023-11-01T03:41:46.629Z,100128.84
2023-11-01T03:44:19.070Z,100126.53
2023-11-01T03:46:50.138Z,100122.03
2023-11-01T03:49:21.564Z,100125.94
2023-11-01T03:51:52.631Z,100120.81
2023-11-01T03:54:20.907Z,100113.31
2023-11-01T03:56:49.248Z,100108.97
2023-11-01T03:59:22.151Z,100106.22
2023-11-01T04:01:50.511Z,100125.09
2023-11-01T04:04:21.296Z,100097.81
2023-11-01T04:06:49.680Z,100104.63
2023-11-01T04:09:18.043Z,100098.00
2023-11-01T04:11:46.418Z,100101.84
2023-11-01T04:14:17.735Z,100090.34
2023-11-01T04:16:52.851Z,100102.69
2023-11-01T04:19:23.609Z,100100.13
2023-11-01T04:21:52.114Z,100099.44
2023-11-01T04:24:20.631Z,100098.09
2023-11-01T04:26:53.667Z,100087.59
2023-11-01T04:29:27.539Z,100077.94
2023-11-01T04:32:03.871Z,100076.78
2023-11-01T04:34:35.254Z,100074.31
2023-11-01T04:37:06.761Z,100079.06
2023-11-01T04:39:37.906Z,100094.34
2023-11-01T04:42:06.760Z,100095.78
2023-11-01T04:44:41.036Z,100085.75
2023-11-01T04:47:19.443Z,100083.00
2023-11-01T04:49:48.275Z,100083.47
2023-11-01T04:52:19.571Z,100078.50
2023-11-01T04:54:50.268Z,100075.44
2023-11-01T04:57:21.844Z,100081.75
2023-11-01T04:59:51.945Z,100076.16
2023-11-01T05:02:24.222Z,100070.03
2023-11-01T05:04:58.777Z,100072.16
2023-11-01T05:07:27.069Z,100070.34
2023-11-01T05:09:55.363Z,100069.13
2023-11-01T05:12:23.668Z,100076.03
2023-11-01T05:14:51.968Z,100068.03
2023-11-01T05:17:21.747Z,100071.31
2023-11-01T05:19:50.078Z,100068.53
2023-11-01T05:22:18.508Z,100066.84
2023-11-01T05:24:48.002Z,100064.06
2023-11-01T05:27:16.520Z,100064.47
2023-11-01T05:29:44.879Z,100061.06
2023-11-01T05:32:16.351Z,100065.44
2023-11-01T05:34:51.247Z,100062.69
2023-11-01T05:37:20.408Z,100051.59
2023-11-01T05:39:48.700Z,100054.06
2023-11-01T05:42:17.108Z,100056.50
2023-11-01T05:44:52.720Z,100054.38
2023-11-01T05:47:21.047Z,100056.38
2023-11-01T05:49:58.430Z,100056.19
2023-11-01T05:52:29.133Z,100056.84
2023-11-01T05:55:07.163Z,100055.28
2023-11-01T05:57:51.265Z,100050.91
2023-11-01T06:00:20.590Z,100053.59
2023-11-01T06:02:52.122Z,100053.09
2023-11-01T06:05:24.077Z,100051.28
2023-11-01T06:07:53.408Z,100056.19
2023-11-01T06:10:22.030Z,100059.69
2023-11-01T06:12:50.310Z,100058.47
2023-11-01T06:15:18.636Z,100053.72
2023-11-01T06:17:53.513Z,100056.22
2023-11-01T06:20:23.328Z,100049.59
2023-11-01T06:22:59.194Z,100058.06
2023-11-01T06:25:27.502Z,100052.03
2023-11-01T06:27:56.176Z,100058.34
2023-11-01T06:30:24.475Z,100073.19
2023-11-01T06:32:52.912Z,100075.16
2023-11-01T06:35:25.102Z,100071.13
2023-11-01T06:37:56.773Z,100072.09
2023-11-01T06:40:25.126Z,100074.75
2023-11-01T06:42:54.758Z,100075.31
2023-11-01T06:45:24.593Z,100077.44
2023-11-01T06:47:52.972Z,100077.13
2023-11-01T06:50:23.321Z,100068.84
2023-11-01T06:52:51.734Z,100079.59
2023-11-01T06:55:26.003Z,100075.91
2023-11-01T06:57:54.672Z,100072.50
2023-11-01T07:00:25.181Z,100076.06
2023-11-01T07:02:53.645Z,100087.00
2023-11-01T07:05:52.083Z,100075.25
2023-11-01T07:08:20.422Z,100074.38
2023-11-01T07:10:50.895Z,100081.59
2023-11-01T07:13:22.281Z,100081.88
2023-11-01T07:15:50.596Z,100087.09
2023-11-01T07:18:21.957Z,100082.81
2023-11-01T07:20:53.936Z,100084.81
2023-11-01T07:23:28.374Z,100081.94
2023-11-01T07:25:59.727Z,100073.28
2023-11-01T07:28:32.329Z,100083.56
2023-11-01T07:31:03.737Z,100077.59
2023-11-01T07:33:39.586Z,100070.66
2023-11-01T07:36:10.808Z,100069.72
2023-11-01T07:38:42.520Z,100071.66
2023-11-01T07:41:12.235Z,100070.44
2023-11-01T07:43:43.870Z,100068.34
2023-11-01T07:46:14.441Z,100072.22
2023-11-01T07:48:42.795Z,100067.41
2023-11-01T07:51:13.217Z,100075.91
2023-11-01T07:53:41.608Z,100077.75
2023-11-01T07:56:10.554Z,100070.69
2023-11-01T07:58:39.018Z,100073.06
2023-11-01T08:01:13.591Z,100069.69
2023-11-01T08:03:44.386Z,100062.69
2023-11-01T08:06:14.135Z,100062.53
2023-11-01T08:08:45.585Z,100057.91
2023-11-01T08:11:16.988Z,100062.03
2023-11-01T08:13:47.013Z,100057.63
2023-11-01T08:16:15.615Z,100054.53
2023-11-01T08:18:46.163Z,100063.16
2023-11-01T08:21:18.374Z,100058.34
2023-11-01T08:23:49.695Z,100050.78
2023-11-01T08:26:18.716Z,100064.91
2023-11-01T08:28:47.438Z,100063.16
2023-11-01T08:31:16.296Z,100060.53
2023-11-01T08:33:52.334Z,100052.19
2023-11-01T08:36:24.432Z,100047.59
2023-11-01T08:38:52.726Z,100045.19
2023-11-01T08:41:23.789Z,100046.66
2023-11-01T08:43:52.237Z,100048.41
2023-11-01T08:46:22.707Z,100054.72
2023-11-01T08:48:51.472Z,100046.84
2023-11-01T08:51:21.095Z,100043.59
2023-11-01T08:53:52.357Z,100041.22
2023-11-01T08:56:23.727Z,100038.72
2023-11-01T08:58:52.027Z,100037.00
2023-11-01T09:01:31.568Z,100039.22
2023-11-01T09:04:02.821Z,100040.63
2023-11-01T09:06:37.345Z,100040.00
2023-11-01T09:09:08.830Z,100039.38
2023-11-01T09:11:41.861Z,100042.50
2023-11-01T09:14:10.123Z,100042.41
2023-11-01T09:16:38.453Z,100042.50
2023-11-01T09:19:09.707Z,100043.50
2023-11-01T09:21:44.896Z,100034.94
2023-11-01T09:24:16.696Z,100039.44
2023-11-01T09:26:47.188Z,100049.16
2023-11-01T09:29:19.021Z,100043.31
2023-11-01T09:31:47.520Z,100056.94
2023-11-01T09:34:16.055Z,100053.28
2023-11-01T09:36:53.971Z,100052.56
2023-11-01T09:39:25.011Z,100052.25
2023-11-01T09:42:10.622Z,100048.91
2023-11-01T09:44:44.692Z,100048.50
2023-11-01T09:47:16.041Z,100052.78
2023-11-01T09:49:46.508Z,100052.38
2023-11-01T09:52:16.737Z,100043.28
2023-11-01T09:54:45.153Z,100041.69
2023-11-01T09:57:14.644Z,100040.19
2023-11-01T09:59:43.466Z,100047.38
2023-11-01T10:02:15.696Z,100034.94
2023-11-01T10:04:46.989Z,100034.97
2023-11-01T10:07:16.695Z,100039.53
2023-11-01T10:09:45.038Z,100034.94
2023-11-01T10:12:17.304Z,100023.31
2023-11-01T10:14:49.212Z,100018.09
2023-11-01T10:17:19.661Z,100015.25
2023-11-01T10:19:51.033Z,100008.78
2023-11-01T10:22:20.743Z,100005.34
2023-11-01T10:24:52.184Z,99998.16
2023-11-01T10:27:20.516Z,100005.44
2023-11-01T10:29:49.171Z,100008.22
2023-11-01T10:32:17.525Z,99994.72
2023-11-01T10:34:48.066Z,99988.47
2023-11-01T10:37:25.747Z,99984.53
2023-11-01T10:39:55.950Z,99980.06
2023-11-01T10:42:24.325Z,99981.63
2023-11-01T10:44:53.805Z,99975.13
2023-11-01T10:47:22.892Z,99965.16
2023-11-01T10:49:53.238Z,99957.13
2023-11-01T10:52:23.857Z,99951.66
2023-11-01T10:54:53.543Z,99951.03
2023-11-01T10:57:23.509Z,99947.22
2023-11-01T11:00:02.588Z,99947.41
2023-11-01T11:02:50.513Z,99937.69
2023-11-01T11:05:25.213Z,99938.44
2023-11-01T11:07:58.082Z,99921.38
2023-11-01T11:10:29.125Z,99927.28
2023-11-01T11:13:30.013Z,99920.66
2023-11-01T11:16:01.239Z,99914.34
2023-11-01T11:18:52.667Z,99910.50
2023-11-01T11:22:04.700Z,99907.22
2023-11-01T11:25:02.750Z,99909.53
2023-11-01T11:27:55.367Z,99896.41
2023-11-01T11:31:01.905Z,99898.50
2023-11-01T11:33:32.345Z,99880.63
2023-11-01T11:36:23.804Z,99885.41
2023-11-01T11:38:56.819Z,99879.44
2023-11-01T11:41:30.679Z,99881.59
2023-11-01T11:44:33.485Z,99873.38
2023-11-01T11:47:25.853Z,99874.41
2023-11-01T11:49:54.764Z,99864.97
2023-11-01T11:52:26.232Z,99870.81
2023-11-01T11:54:54.568Z,99862.41
2023-11-01T11:57:30.738Z,99862.75
2023-11-01T12:00:09.128Z,99848.97
2023-11-01T12:02:37.737Z,99854.94
2023-11-01T12:05:07.057Z,99845.00
2023-11-01T12:07:48.477Z,99837.06
2023-11-01T12:10:22.889Z,99840.00
2023-11-01T12:12:59.202Z,99831.44
2023-11-01T12:15:41.589Z,99824.25
2023-11-01T12:18:13.353Z,99821.22
2023-11-01T12:20:41.768Z,99824.06
2023-11-01T12:23:11.055Z,99819.34
2023-11-01T12:25:42.252Z,99814.63
2023-11-01T12:28:22.550Z,99818.56
2023-11-01T12:30:53.634Z,99819.88
2023-11-01T12:33:22.232Z,99810.53
2023-11-01T12:35:53.804Z,99812.91
2023-11-01T12:38:22.240Z,99801.31
2023-11-01T12:40:52.234Z,99806.41
2023-11-01T12:43:21.893Z,99798.25
2023-11-01T12:45:54.077Z,99798.81
2023-11-01T12:48:22.855Z,99795.06
2023-11-01T12:50:51.192Z,99782.78
2023-11-01T12:53:19.502Z,99783.72
2023-11-01T12:55:50.818Z,99776.19
2023-11-01T12:58:23.618Z,99773.28
2023-11-01T13:00:56.529Z,99766.34
2023-11-01T13:03:30.656Z,99763.75
2023-11-01T13:06:01.916Z,99761.34
2023-11-01T13:08:33.087Z,99752.53
2023-11-01T13:11:01.608Z,99746.09
2023-11-01T13:13:31.255Z,99740.13
2023-11-01T13:16:01.768Z,99742.88
2023-11-01T13:18:32.314Z,99731.13
2023-11-01T13:21:02.817Z,99734.34
2023-11-01T13:23:31.113Z,99728.59
2023-11-01T13:26:13.384Z,99721.78
2023-11-01T13:28:44.633Z,99726.22
2023-11-01T13:31:15.735Z,99720.94
2023-11-01T13:33:44.261Z,99715.63
2023-11-01T13:36:24.707Z,99720.91
2023-11-01T13:38:55.635Z,99710.56
2023-11-01T13:41:24.313Z,99717.16
2023-11-01T13:43:54.140Z,99705.34
2023-11-01T13:46:22.516Z,99701.91
2023-11-01T13:48:50.822Z,99710.88
2023-11-01T13:51:21.871Z,99711.44
2023-11-01T13:53:53.014Z,99690.31
2023-11-01T13:56:21.343Z,99691.03
2023-11-01T13:58:51.961Z,99694.78
2023-11-01T14:01:29.994Z,99672.91
2023-11-01T14:04:01.396Z,99669.19
2023-11-01T14:06:29.739Z,99662.25
2023-11-01T14:09:00.857Z,99658.69
2023-11-01T14:11:29.196Z,99657.75
2023-11-01T14:14:07.317Z,99650.91
2023-11-01T14:16:37.015Z,99649.13
2023-11-01T14:19:11.676Z,99652.50
2023-11-01T14:21:42.811Z,99654.88
2023-11-01T14:24:11.848Z,99660.53
2023-11-01T14:26:43.604Z,99646.81
2023-11-01T14:29:11.954Z,99646.81
2023-11-01T14:31:41.803Z,99638.81
2023-11-01T14:34:16.373Z,99636.19
2023-11-01T14:36:49.997Z,99635.59
2023-11-01T14:39:18.344Z,99637.09
2023-11-01T14:41:53.047Z,99631.69
2023-11-01T14:44:36.269Z,99641.91
2023-11-01T14:47:06.798Z,99637.63
2023-11-01T14:49:40.897Z,99640.44
2023-11-01T14:52:09.197Z,99633.81
2023-11-01T14:54:37.483Z,99625.88
2023-11-01T14:57:11.678Z,99629.91
2023-11-01T14:59:39.996Z,99625.34
2023-11-01T15:02:09.717Z,99622.13
2023-11-01T15:04:41.090Z,99620.16
2023-11-01T15:07:12.511Z,99618.19
2023-11-01T15:09:41.044Z,99611.78
2023-11-01T15:12:10.062Z,99609.00
2023-11-01T15:14:38.441Z,99599.31
2023-11-01T15:17:06.813Z,99603.53
2023-11-01T15:19:36.505Z,99602.78
2023-11-01T15:22:05.441Z,99584.47
2023-11-01T15:24:33.739Z,99580.81
2023-11-01T15:27:02.080Z,99585.91
2023-11-01T15:29:30.376Z,99591.59
2023-11-01T15:32:01.140Z,99587.78
2023-11-01T15:34:37.104Z,99577.78
2023-11-01T15:37:09.822Z,99575.91
2023-11-01T15:39:39.914Z,99568.63
2023-11-01T15:42:12.668Z,99567.44
2023-11-01T15:44:40.977Z,99570.19
2023-11-01T15:47:12.346Z,99558.34
2023-11-01T15:49:40.712Z,99552.41
2023-11-01T15:52:10.353Z,99555.91
2023-11-01T15:54:38.759Z,99547.25
2023-11-01T15:57:14.876Z,99557.69
2023-11-01T15:59:43.294Z,99548.34
2023-11-01T16:02:11.904Z,99557.06
2023-11-01T16:04:40.375Z,99544.53
2023-11-01T16:07:10.106Z,99542.34
2023-11-01T16:09:42.223Z,99533.72
2023-11-01T16:12:13.634Z,99538.53
2023-11-01T16:14:46.605Z,99528.09
2023-11-01T16:17:15.230Z,99530.97
2023-11-01T16:19:49.490Z,99520.94
2023-11-01T16:22:22.234Z,99530.34
2023-11-01T16:25:01.201Z,99530.22
2023-11-01T16:27:31.186Z,99525.16
2023-11-01T16:29:59.815Z,99527.59
2023-11-01T16:32:29.732Z,99527.41
2023-11-01T16:34:58.080Z,99536.84
2023-11-01T16:37:30.951Z,99538.63
2023-11-01T16:40:00.274Z,99543.81
2023-11-01T16:42:30.257Z,99545.28
2023-11-01T16:45:05.946Z,99544.19
2023-11-01T16:47:34.326Z,99548.75
2023-11-01T16:50:02.689Z,99556.19
2023-11-01T16:52:32.598Z,99561.13
2023-11-01T16:55:11.427Z,99565.66
2023-11-01T16:57:40.259Z,99570.50
2023-11-01T17:00:13.190Z,99574.38
2023-11-01T17:02:47.896Z,99574.09
2023-11-01T17:05:21.440Z,99570.03
2023-11-01T17:07:54.261Z,99569.03
2023-11-01T17:10:25.604Z,99572.16
2023-11-01T17:12:54.003Z,99567.13
2023-11-01T17:15:34.480Z,99569.19
2023-11-01T17:18:02.877Z,99566.22
2023-11-01T17:20:31.211Z,99574.09
2023-11-01T17:23:09.502Z,99572.41
2023-11-01T17:26:37.727Z,99580.34
2023-11-01T17:29:13.188Z,99581.03
2023-11-01T17:31:43.781Z,99569.75
2023-11-01T17:34:14.481Z,99577.63
2023-11-01T17:36:48.696Z,99572.72
2023-11-01T17:39:38.776Z,99580.03
2023-11-01T17:42:12.125Z,99569.38
2023-11-01T17:44:45.194Z,99577.84
2023-11-01T17:47:26.839Z,99577.66
2023-11-01T17:50:01.608Z,99589.59
2023-11-01T17:52:42.912Z,99587.69
2023-11-01T17:55:17.347Z,99583.88
2023-11-01T17:57:46.135Z,99584.16
2023-11-01T18:00:16.615Z,99581.59
2023-11-01T18:03:21.785Z,99590.69
2023-11-01T18:05:50.615Z,99589.19
2023-11-01T18:08:20.877Z,99575.06
2023-11-01T18:10:56.302Z,99575.91
2023-11-01T18:13:28.282Z,99584.16
2023-11-01T18:16:04.908Z,99590.34
2023-11-01T18:18:51.843Z,99585.47
2023-11-01T18:21:34.506Z,99585.88
2023-11-01T18:24:09.025Z,99581.94
2023-11-01T18:26:40.837Z,99587.84
2023-11-01T18:29:11.738Z,99586.66
2023-11-01T18:31:43.902Z,99581.59
2023-11-01T18:34:18.529Z,99571.88
2023-11-01T18:36:49.507Z,99573.81
2023-11-01T18:39:23.609Z,99573.06
2023-11-01T18:41:55.415Z,99571.94
2023-11-01T18:44:30.189Z,99567.00
2023-11-01T18:46:59.592Z,99562.38
2023-11-01T18:50:00.551Z,99571.38
2023-11-01T18:52:28.990Z,99576.03
2023-11-01T18:54:57.355Z,99564.50
2023-11-01T18:57:36.529Z,99565.03
2023-11-01T19:00:10.288Z,99569.16
2023-11-01T19:03:04.495Z,99560.97
2023-11-01T19:05:33.828Z,99566.63
2023-11-01T19:08:02.845Z,99555.47
2023-11-01T19:10:36.755Z,99557.16
2023-11-01T19:13:13.776Z,99557.41
2023-11-01T19:16:15.972Z,99553.22
2023-11-01T19:18:57.269Z,99553.03
2023-11-01T19:21:31.670Z,99538.44
2023-11-01T19:24:04.448Z,99541.94
2023-11-01T19:26:35.665Z,99536.44
2023-11-01T19:29:05.876Z,99538.59
2023-11-01T19:31:34.176Z,99531.03
2023-11-01T19:34:06.349Z,99538.69
2023-11-01T19:36:34.936Z,99545.38
2023-11-01T19:39:07.993Z,99529.91
2023-11-01T19:41:36.966Z,99537.75
2023-11-01T19:44:07.301Z,99532.09
2023-11-01T19:46:38.454Z,99525.84
2023-11-01T19:49:07.406Z,99529.25
2023-11-01T19:51:35.809Z,99520.63
2023-11-01T19:54:04.113Z,99533.63
2023-11-01T19:56:35.009Z,99517.56
2023-11-01T19:59:09.210Z,99519.75
2023-11-01T20:01:37.655Z,99517.00
2023-11-01T20:04:06.184Z,99528.13
2023-11-01T20:06:34.505Z,99519.41
2023-11-01T20:09:07.894Z,99514.03
2023-11-01T20:11:36.287Z,99520.53
2023-11-01T20:14:04.600Z,99525.41
2023-11-01T20:16:34.269Z,99525.59
2023-11-01T20:19:11.542Z,99515.38
2023-11-01T20:21:42.945Z,99506.84
2023-11-01T20:24:11.516Z,99507.59
2023-11-01T20:26:43.001Z,99509.06
2023-11-01T20:29:11.438Z,99521.09
2023-11-01T20:31:41.741Z,99507.56
2023-11-01T20:34:10.092Z,99504.63
2023-11-01T20:36:38.794Z,99510.41
2023-11-01T20:39:08.505Z,99504.59
2023-11-01T20:41:40.456Z,99502.88
2023-11-01T20:44:12.426Z,99509.50
2023-11-01T20:46:42.079Z,99494.22
2023-11-01T20:49:13.201Z,99494.25
2023-11-01T20:51:41.519Z,99500.34
2023-11-01T20:54:15.616Z,99488.63
2023-11-01T20:56:48.300Z,99492.44
2023-11-01T20:59:22.568Z,99479.91
2023-11-01T21:01:54.501Z,99485.16
2023-11-01T21:04:32.337Z,99473.81
2023-11-01T21:07:02.120Z,99467.03
2023-11-01T21:09:34.718Z,99464.22
2023-11-01T21:12:06.503Z,99461.72
2023-11-01T21:14:38.812Z,99447.72
2023-11-01T21:17:13.272Z,99453.66
2023-11-01T21:19:41.570Z,99453.72
2023-11-01T21:22:16.332Z,99442.66
2023-11-01T21:24:53.708Z,99433.22
2023-11-01T21:27:22.009Z,99433.56
2023-11-01T21:30:00.643Z,99428.31
2023-11-01T21:32:32.552Z,99417.13
2023-11-01T21:35:16.410Z,99416.38
2023-11-01T21:37:44.977Z,99402.53
2023-11-01T21:40:19.153Z,99409.88
2023-11-01T21:42:56.514Z,99397.94
2023-11-01T21:45:48.185Z,99409.41
2023-11-01T21:48:24.835Z,99408.84
2023-11-01T21:51:06.335Z,99405.13
2023-11-01T21:53:38.166Z,99396.00
2023-11-01T21:56:09.943Z,99393.03
2023-11-01T21:58:38.476Z,99384.47
2023-11-01T22:01:08.827Z,99377.50
2023-11-01T22:03:49.501Z,99380.63
2023-11-01T22:06:31.383Z,99384.97
2023-11-01T22:09:08.183Z,99374.47
2023-11-01T22:11:39.129Z,99366.25
2023-11-01T22:14:11.016Z,99363.00
2023-11-01T22:16:41.398Z,99369.38
2023-11-01T22:19:33.529Z,99367.16
2023-11-01T22:22:05.815Z,99362.44
2023-11-01T22:24:38.304Z,99361.19
2023-11-01T22:27:10.797Z,99348.44
2023-11-01T22:29:47.585Z,99344.81
2023-11-01T22:32:31.958Z,99339.50
2023-11-01T22:35:09.441Z,99322.09
2023-11-01T22:37:38.531Z,99312.22
2023-11-01T22:40:09.023Z,99322.28
2023-11-01T22:42:37.649Z,99319.44
2023-11-01T22:45:06.890Z,99322.03
2023-11-01T22:47:35.596Z,99313.47
2023-11-01T22:50:16.056Z,99309.22
2023-11-01T22:52:44.603Z,99306.94
2023-11-01T22:55:18.788Z,99313.28
2023-11-01T22:57:56.452Z,99307.91
2023-11-01T23:00:29.954Z,99301.31
2023-11-01T23:03:02.062Z,99297.00
2023-11-01T23:05:35.731Z,99286.41
2023-11-01T23:08:07.749Z,99272.56
2023-11-01T23:10:36.312Z,99259.34
2023-11-01T23:13:04.820Z,99251.38
2023-11-01T23:15:41.413Z,99252.25
2023-11-01T23:18:13.551Z,99244.81
2023-11-01T23:20:44.365Z,99235.31
2023-11-01T23:23:14.947Z,99228.75
2023-11-01T23:25:46.217Z,99222.38
2023-11-01T23:28:46.867Z,99223.47
2023-11-01T23:31:20.036Z,99215.13
2023-11-01T23:33:51.490Z,99216.50
2023-11-01T23:36:28.442Z,99207.34
2023-11-01T23:38:57.557Z,99202.56
2023-11-01T23:41:54.837Z,99205.91
2023-11-01T23:44:26.468Z,99193.81
2023-11-01T23:46:55.097Z,99191.88
2023-11-01T23:50:00.502Z,99182.63
2023-11-01T23:52:33.341Z,99182.03
2023-11-01T23:55:01.656Z,99174.09
2023-11-01T23:57:32.281Z,99168.06
